Terminal Aerodrome Forecast
Issued by NWS

Current Version | Previous Version | Text Only | Print | Product List | Glossary On
Versions: 1 2 3 4 5 6 7 8 9 10 11 12 13 14 15 16 17 18 19 20 21 22 23
000
FTUS43 KGRB 242200 AAB
TAFRHI
TAF AMD
KRHI 242229Z 2422/2518 20006KT P6SM BKN020 OVC040
      TEMPO 2501/2504 5SM BR BKN012
     FM250400 25006KT 5SM BR SCT006 SCT250
     FM250600 26006KT 2SM BR BKN005
     FM251000 29011KT P6SM SCT015=

USA.gov is the U.S. government's official web portal to all federal, state and local government web resources and services.